sensor_id;sensor_type;location;lat;lon;timestamp;P1;durP1;ratioP1;P2;durP2;ratioP2
8199;SDS011;4141;47.880;12.340;2022-09-13T00:00:49;3.33;;;3.00;;
8199;SDS011;4141;47.880;12.340;2022-09-13T00:03:18;4.20;;;3.30;;
8199;SDS011;4141;47.880;12.340;2022-09-13T00:05:46;3.97;;;3.23;;
8199;SDS011;4141;47.880;12.340;2022-09-13T00:08:15;4.27;;;2.97;;
8199;SDS011;4141;47.880;12.340;2022-09-13T00:10:45;3.17;;;2.80;;
8199;SDS011;4141;47.880;12.340;2022-09-13T00:13:14;4.23;;;2.90;;
8199;SDS011;4141;47.880;12.340;2022-09-13T00:15:43;4.03;;;3.20;;
8199;SDS011;4141;47.880;12.340;2022-09-13T00:18:12;8.83;;;3.27;;
8199;SDS011;4141;47.880;12.340;2022-09-13T00:20:40;5.83;;;4.27;;
8199;SDS011;4141;47.880;12.340;2022-09-13T00:23:08;6.10;;;3.60;;
8199;SDS011;4141;47.880;12.340;2022-09-13T00:25:37;4.07;;;3.17;;
8199;SDS011;4141;47.880;12.340;2022-09-13T00:28:06;4.43;;;4.00;;
8199;SDS011;4141;47.880;12.340;2022-09-13T00:30:35;3.40;;;3.07;;
8199;SDS011;4141;47.880;12.340;2022-09-13T00:33:03;6.50;;;3.40;;
8199;SDS011;4141;47.880;12.340;2022-09-13T00:35:31;4.30;;;3.03;;
8199;SDS011;4141;47.880;12.340;2022-09-13T00:37:59;5.37;;;3.03;;
8199;SDS011;4141;47.880;12.340;2022-09-13T00:40:28;3.43;;;3.10;;
8199;SDS011;4141;47.880;12.340;2022-09-13T00:42:56;8.43;;;3.77;;
8199;SDS011;4141;47.880;12.340;2022-09-13T00:45:26;5.53;;;3.80;;
8199;SDS011;4141;47.880;12.340;2022-09-13T00:47:55;9.90;;;5.20;;
8199;SDS011;4141;47.880;12.340;2022-09-13T00:50:26;5.63;;;3.93;;
8199;SDS011;4141;47.880;12.340;2022-09-13T00:52:59;7.20;;;3.50;;
8199;SDS011;4141;47.880;12.340;2022-09-13T00:55:30;4.70;;;3.20;;
8199;SDS011;4141;47.880;12.340;2022-09-13T00:58:01;6.87;;;3.33;;
8199;SDS011;4141;47.880;12.340;2022-09-13T01:00:33;5.30;;;3.10;;
8199;SDS011;4141;47.880;12.340;2022-09-13T01:03:03;4.17;;;3.37;;
8199;SDS011;4141;47.880;12.340;2022-09-13T01:05:34;4.20;;;3.80;;
8199;SDS011;4141;47.880;12.340;2022-09-13T01:08:05;4.20;;;3.80;;
8199;SDS011;4141;47.880;12.340;2022-09-13T01:10:38;5.80;;;3.50;;
8199;SDS011;4141;47.880;12.340;2022-09-13T01:13:08;3.87;;;3.10;;
8199;SDS011;4141;47.880;12.340;2022-09-13T01:15:41;9.30;;;5.30;;
8199;SDS011;4141;47.880;12.340;2022-09-13T01:18:10;7.37;;;5.03;;
8199;SDS011;4141;47.880;12.340;2022-09-13T01:20:43;6.63;;;5.10;;
8199;SDS011;4141;47.880;12.340;2022-09-13T01:23:19;5.20;;;4.37;;
8199;SDS011;4141;47.880;12.340;2022-09-13T01:29:18;4.10;;;3.53;;
8199;SDS011;4141;47.880;12.340;2022-09-13T01:32:13;6.30;;;3.53;;
8199;SDS011;4141;47.880;12.340;2022-09-13T01:34:50;4.20;;;3.13;;
8199;SDS011;4141;47.880;12.340;2022-09-13T01:37:29;3.33;;;2.90;;
8199;SDS011;4141;47.880;12.340;2022-09-13T01:40:12;3.70;;;2.70;;
8199;SDS011;4141;47.880;12.340;2022-09-13T01:42:51;3.37;;;2.73;;
8199;SDS011;4141;47.880;12.340;2022-09-13T01:45:27;3.60;;;2.80;;
8199;SDS011;4141;47.880;12.340;2022-09-13T01:48:05;4.70;;;2.80;;
8199;SDS011;4141;47.880;12.340;2022-09-13T01:50:37;2.83;;;2.17;;
8199;SDS011;4141;47.880;12.340;2022-09-13T01:53:12;11.70;;;5.00;;
8199;SDS011;4141;47.880;12.340;2022-09-13T01:55:45;6.07;;;3.60;;
8199;SDS011;4141;47.880;12.340;2022-09-13T01:58:17;7.00;;;3.50;;
8199;SDS011;4141;47.880;12.340;2022-09-13T02:00:50;7.10;;;3.20;;
8199;SDS011;4141;47.880;12.340;2022-09-13T02:03:25;9.13;;;3.10;;
8199;SDS011;4141;47.880;12.340;2022-09-13T02:05:58;3.20;;;2.53;;
8199;SDS011;4141;47.880;12.340;2022-09-13T02:08:30;3.87;;;2.93;;
8199;SDS011;4141;47.880;12.340;2022-09-13T02:11:04;5.50;;;2.67;;
8199;SDS011;4141;47.880;12.340;2022-09-13T02:13:35;3.20;;;1.70;;
8199;SDS011;4141;47.880;12.340;2022-09-13T02:16:07;3.77;;;2.67;;
8199;SDS011;4141;47.880;12.340;2022-09-13T02:18:40;4.03;;;2.57;;
8199;SDS011;4141;47.880;12.340;2022-09-13T02:21:13;3.47;;;2.57;;
8199;SDS011;4141;47.880;12.340;2022-09-13T02:23:43;3.30;;;2.27;;
8199;SDS011;4141;47.880;12.340;2022-09-13T02:26:15;3.87;;;2.63;;
8199;SDS011;4141;47.880;12.340;2022-09-13T02:28:46;3.20;;;2.30;;
8199;SDS011;4141;47.880;12.340;2022-09-13T02:31:20;4.17;;;2.20;;
8199;SDS011;4141;47.880;12.340;2022-09-13T02:33:54;3.53;;;2.40;;
8199;SDS011;4141;47.880;12.340;2022-09-13T02:36:25;3.40;;;2.30;;
8199;SDS011;4141;47.880;12.340;2022-09-13T02:38:55;3.07;;;1.90;;
8199;SDS011;4141;47.880;12.340;2022-09-13T02:41:27;5.23;;;2.13;;
8199;SDS011;4141;47.880;12.340;2022-09-13T02:44:03;2.30;;;1.90;;
8199;SDS011;4141;47.880;12.340;2022-09-13T02:46:42;4.97;;;1.70;;
8199;SDS011;4141;47.880;12.340;2022-09-13T02:49:22;3.07;;;1.93;;
8199;SDS011;4141;47.880;12.340;2022-09-13T02:51:54;3.13;;;2.43;;
8199;SDS011;4141;47.880;12.340;2022-09-13T02:54:24;2.50;;;1.97;;
8199;SDS011;4141;47.880;12.340;2022-09-13T02:57:00;2.10;;;1.87;;
8199;SDS011;4141;47.880;12.340;2022-09-13T02:59:31;2.90;;;1.93;;
8199;SDS011;4141;47.880;12.340;2022-09-13T03:02:00;7.40;;;2.13;;
8199;SDS011;4141;47.880;12.340;2022-09-13T03:04:32;2.20;;;1.80;;
8199;SDS011;4141;47.880;12.340;2022-09-13T03:07:01;2.07;;;1.50;;
8199;SDS011;4141;47.880;12.340;2022-09-13T03:09:30;5.20;;;2.23;;
8199;SDS011;4141;47.880;12.340;2022-09-13T03:15:00;3.00;;;2.00;;
8199;SDS011;4141;47.880;12.340;2022-09-13T03:17:40;2.63;;;1.83;;
8199;SDS011;4141;47.880;12.340;2022-09-13T03:20:20;3.00;;;2.40;;
8199;SDS011;4141;47.880;12.340;2022-09-13T03:23:03;2.30;;;2.07;;
8199;SDS011;4141;47.880;12.340;2022-09-13T03:25:47;4.70;;;1.93;;
8199;SDS011;4141;47.880;12.340;2022-09-13T03:28:29;2.77;;;1.93;;
8199;SDS011;4141;47.880;12.340;2022-09-13T03:31:03;4.53;;;2.20;;
8199;SDS011;4141;47.880;12.340;2022-09-13T03:33:36;6.03;;;2.80;;
8199;SDS011;4141;47.880;12.340;2022-09-13T03:36:11;2.10;;;1.70;;
8199;SDS011;4141;47.880;12.340;2022-09-13T03:38:43;2.47;;;1.90;;
8199;SDS011;4141;47.880;12.340;2022-09-13T03:41:15;3.80;;;1.90;;
8199;SDS011;4141;47.880;12.340;2022-09-13T03:43:46;2.97;;;2.37;;
8199;SDS011;4141;47.880;12.340;2022-09-13T03:46:17;2.80;;;2.30;;
8199;SDS011;4141;47.880;12.340;2022-09-13T03:48:50;3.93;;;2.40;;
8199;SDS011;4141;47.880;12.340;2022-09-13T03:51:20;2.80;;;2.10;;
8199;SDS011;4141;47.880;12.340;2022-09-13T03:53:51;3.60;;;2.50;;
8199;SDS011;4141;47.880;12.340;2022-09-13T03:56:22;3.50;;;2.70;;
8199;SDS011;4141;47.880;12.340;2022-09-13T03:58:51;9.97;;;3.30;;
8199;SDS011;4141;47.880;12.340;2022-09-13T04:01:20;2.83;;;2.33;;
8199;SDS011;4141;47.880;12.340;2022-09-13T04:03:49;5.30;;;2.87;;
8199;SDS011;4141;47.880;12.340;2022-09-13T04:06:24;5.17;;;3.10;;
8199;SDS011;4141;47.880;12.340;2022-09-13T04:08:52;3.33;;;2.40;;
8199;SDS011;4141;47.880;12.340;2022-09-13T04:11:20;3.60;;;2.00;;
8199;SDS011;4141;47.880;12.340;2022-09-13T04:13:49;2.10;;;1.90;;
8199;SDS011;4141;47.880;12.340;2022-09-13T04:16:18;7.13;;;2.57;;
8199;SDS011;4141;47.880;12.340;2022-09-13T04:18:47;3.20;;;2.33;;
8199;SDS011;4141;47.880;12.340;2022-09-13T04:21:15;9.03;;;2.77;;
8199;SDS011;4141;47.880;12.340;2022-09-13T04:23:45;3.50;;;2.33;;
8199;SDS011;4141;47.880;12.340;2022-09-13T04:26:17;3.43;;;2.10;;
8199;SDS011;4141;47.880;12.340;2022-09-13T04:28:45;4.77;;;2.27;;
8199;SDS011;4141;47.880;12.340;2022-09-13T04:31:14;4.50;;;2.40;;
8199;SDS011;4141;47.880;12.340;2022-09-13T04:33:42;3.60;;;2.63;;
8199;SDS011;4141;47.880;12.340;2022-09-13T04:36:10;10.70;;;2.70;;
8199;SDS011;4141;47.880;12.340;2022-09-13T04:38:38;3.50;;;2.20;;
8199;SDS011;4141;47.880;12.340;2022-09-13T04:41:08;2.40;;;1.90;;
8199;SDS011;4141;47.880;12.340;2022-09-13T04:43:39;3.37;;;1.90;;
8199;SDS011;4141;47.880;12.340;2022-09-13T04:46:07;4.67;;;1.80;;
8199;SDS011;4141;47.880;12.340;2022-09-13T04:48:35;3.70;;;2.20;;
8199;SDS011;4141;47.880;12.340;2022-09-13T04:51:03;3.30;;;1.70;;
8199;SDS011;4141;47.880;12.340;2022-09-13T04:53:32;3.17;;;2.03;;
8199;SDS011;4141;47.880;12.340;2022-09-13T04:56:00;4.10;;;1.90;;
8199;SDS011;4141;47.880;12.340;2022-09-13T04:58:29;3.00;;;1.93;;
8199;SDS011;4141;47.880;12.340;2022-09-13T05:01:01;2.80;;;1.63;;
8199;SDS011;4141;47.880;12.340;2022-09-13T05:03:30;5.27;;;2.10;;
8199;SDS011;4141;47.880;12.340;2022-09-13T05:06:00;4.67;;;2.10;;
8199;SDS011;4141;47.880;12.340;2022-09-13T05:08:30;3.10;;;2.20;;
8199;SDS011;4141;47.880;12.340;2022-09-13T05:10:58;2.97;;;2.07;;
8199;SDS011;4141;47.880;12.340;2022-09-13T05:13:26;7.53;;;1.97;;
8199;SDS011;4141;47.880;12.340;2022-09-13T05:15:56;6.50;;;1.73;;
8199;SDS011;4141;47.880;12.340;2022-09-13T05:18:25;5.60;;;1.90;;
8199;SDS011;4141;47.880;12.340;2022-09-13T05:20:53;3.90;;;2.00;;
8199;SDS011;4141;47.880;12.340;2022-09-13T05:23:22;2.27;;;1.47;;
8199;SDS011;4141;47.880;12.340;2022-09-13T05:25:53;8.13;;;1.60;;
8199;SDS011;4141;47.880;12.340;2022-09-13T05:28:21;3.77;;;1.77;;
8199;SDS011;4141;47.880;12.340;2022-09-13T05:30:53;8.00;;;2.25;;
8199;SDS011;4141;47.880;12.340;2022-09-13T05:33:23;3.90;;;1.30;;
8199;SDS011;4141;47.880;12.340;2022-09-13T05:35:52;6.70;;;1.73;;
8199;SDS011;4141;47.880;12.340;2022-09-13T05:38:20;4.55;;;1.40;;
8199;SDS011;4141;47.880;12.340;2022-09-13T05:40:52;1.53;;;1.20;;
8199;SDS011;4141;47.880;12.340;2022-09-13T05:43:22;5.10;;;1.50;;
8199;SDS011;4141;47.880;12.340;2022-09-13T05:46:00;6.30;;;1.97;;
8199;SDS011;4141;47.880;12.340;2022-09-13T05:48:29;4.00;;;1.53;;
8199;SDS011;4141;47.880;12.340;2022-09-13T05:51:02;3.63;;;1.50;;
8199;SDS011;4141;47.880;12.340;2022-09-13T05:53:32;2.35;;;1.65;;
8199;SDS011;4141;47.880;12.340;2022-09-13T05:56:00;3.00;;;1.83;;
8199;SDS011;4141;47.880;12.340;2022-09-13T05:58:28;3.53;;;1.73;;
8199;SDS011;4141;47.880;12.340;2022-09-13T06:00:57;18.03;;;2.30;;
8199;SDS011;4141;47.880;12.340;2022-09-13T06:03:28;2.03;;;1.57;;
8199;SDS011;4141;47.880;12.340;2022-09-13T06:05:56;4.63;;;1.67;;
8199;SDS011;4141;47.880;12.340;2022-09-13T06:08:25;5.43;;;2.20;;
8199;SDS011;4141;47.880;12.340;2022-09-13T06:10:55;10.10;;;2.30;;
8199;SDS011;4141;47.880;12.340;2022-09-13T06:13:24;4.40;;;1.93;;
8199;SDS011;4141;47.880;12.340;2022-09-13T06:15:53;9.03;;;1.30;;
8199;SDS011;4141;47.880;12.340;2022-09-13T06:18:23;2.53;;;1.83;;
8199;SDS011;4141;47.880;12.340;2022-09-13T06:20:56;2.83;;;1.60;;
8199;SDS011;4141;47.880;12.340;2022-09-13T06:23:25;6.90;;;2.03;;
8199;SDS011;4141;47.880;12.340;2022-09-13T06:26:00;16.03;;;2.03;;
8199;SDS011;4141;47.880;12.340;2022-09-13T06:28:30;6.53;;;2.17;;
8199;SDS011;4141;47.880;12.340;2022-09-13T06:31:03;3.13;;;2.10;;
8199;SDS011;4141;47.880;12.340;2022-09-13T06:33:34;3.20;;;2.13;;
8199;SDS011;4141;47.880;12.340;2022-09-13T06:36:04;3.13;;;2.07;;
8199;SDS011;4141;47.880;12.340;2022-09-13T06:38:34;4.63;;;1.67;;
8199;SDS011;4141;47.880;12.340;2022-09-13T06:41:03;2.40;;;1.27;;
8199;SDS011;4141;47.880;12.340;2022-09-13T06:43:32;2.67;;;1.30;;
8199;SDS011;4141;47.880;12.340;2022-09-13T06:46:01;2.37;;;1.90;;
8199;SDS011;4141;47.880;12.340;2022-09-13T06:48:30;2.60;;;1.40;;
8199;SDS011;4141;47.880;12.340;2022-09-13T06:51:01;5.43;;;1.70;;
8199;SDS011;4141;47.880;12.340;2022-09-13T06:53:33;4.33;;;1.20;;
8199;SDS011;4141;47.880;12.340;2022-09-13T06:56:03;7.63;;;1.10;;
8199;SDS011;4141;47.880;12.340;2022-09-13T06:58:33;2.57;;;1.43;;
8199;SDS011;4141;47.880;12.340;2022-09-13T07:01:08;2.20;;;1.30;;
8199;SDS011;4141;47.880;12.340;2022-09-13T07:03:38;1.70;;;1.10;;
8199;SDS011;4141;47.880;12.340;2022-09-13T07:06:09;4.43;;;1.07;;
8199;SDS011;4141;47.880;12.340;2022-09-13T07:08:38;4.20;;;1.17;;
8199;SDS011;4141;47.880;12.340;2022-09-13T07:11:07;2.77;;;1.40;;
8199;SDS011;4141;47.880;12.340;2022-09-13T07:13:36;2.35;;;1.15;;
8199;SDS011;4141;47.880;12.340;2022-09-13T07:16:05;4.23;;;1.60;;
8199;SDS011;4141;47.880;12.340;2022-09-13T07:18:34;5.43;;;1.20;;
8199;SDS011;4141;47.880;12.340;2022-09-13T07:21:03;2.57;;;1.20;;
8199;SDS011;4141;47.880;12.340;2022-09-13T07:23:34;2.37;;;1.27;;
8199;SDS011;4141;47.880;12.340;2022-09-13T07:26:03;3.20;;;1.50;;
8199;SDS011;4141;47.880;12.340;2022-09-13T07:28:33;2.53;;;1.40;;
8199;SDS011;4141;47.880;12.340;2022-09-13T07:31:06;7.83;;;1.20;;
8199;SDS011;4141;47.880;12.340;2022-09-13T07:33:35;2.10;;;1.33;;
8199;SDS011;4141;47.880;12.340;2022-09-13T07:36:04;2.07;;;1.20;;
8199;SDS011;4141;47.880;12.340;2022-09-13T07:38:35;3.03;;;1.30;;
8199;SDS011;4141;47.880;12.340;2022-09-13T07:41:04;2.17;;;0.90;;
8199;SDS011;4141;47.880;12.340;2022-09-13T07:43:34;3.10;;;1.43;;
8199;SDS011;4141;47.880;12.340;2022-09-13T07:46:04;2.53;;;0.87;;
8199;SDS011;4141;47.880;12.340;2022-09-13T07:48:33;2.70;;;1.23;;
8199;SDS011;4141;47.880;12.340;2022-09-13T07:51:03;2.20;;;1.40;;
8199;SDS011;4141;47.880;12.340;2022-09-13T07:53:35;4.60;;;1.73;;
8199;SDS011;4141;47.880;12.340;2022-09-13T07:56:04;3.90;;;1.17;;
8199;SDS011;4141;47.880;12.340;2022-09-13T07:58:33;2.30;;;1.40;;
8199;SDS011;4141;47.880;12.340;2022-09-13T08:01:04;5.20;;;1.17;;
8199;SDS011;4141;47.880;12.340;2022-09-13T08:03:34;1.60;;;0.90;;
8199;SDS011;4141;47.880;12.340;2022-09-13T08:06:03;6.40;;;0.97;;
8199;SDS011;4141;47.880;12.340;2022-09-13T08:08:33;5.20;;;1.17;;
8199;SDS011;4141;47.880;12.340;2022-09-13T08:11:04;2.60;;;1.30;;
8199;SDS011;4141;47.880;12.340;2022-09-13T08:13:33;3.27;;;1.37;;
8199;SDS011;4141;47.880;12.340;2022-09-13T08:16:02;4.03;;;1.57;;
8199;SDS011;4141;47.880;12.340;2022-09-13T08:18:31;5.13;;;1.90;;
8199;SDS011;4141;47.880;12.340;2022-09-13T08:21:00;2.50;;;1.30;;
8199;SDS011;4141;47.880;12.340;2022-09-13T08:23:28;2.53;;;1.27;;
8199;SDS011;4141;47.880;12.340;2022-09-13T08:26:00;2.53;;;1.47;;
8199;SDS011;4141;47.880;12.340;2022-09-13T08:28:29;4.53;;;1.60;;
8199;SDS011;4141;47.880;12.340;2022-09-13T08:31:02;8.17;;;2.00;;
8199;SDS011;4141;47.880;12.340;2022-09-13T08:33:31;3.23;;;1.50;;
8199;SDS011;4141;47.880;12.340;2022-09-13T08:36:00;2.10;;;1.30;;
8199;SDS011;4141;47.880;12.340;2022-09-13T08:38:29;2.30;;;1.30;;
8199;SDS011;4141;47.880;12.340;2022-09-13T08:40:58;1.67;;;0.97;;
8199;SDS011;4141;47.880;12.340;2022-09-13T08:43:40;4.13;;;2.00;;
8199;SDS011;4141;47.880;12.340;2022-09-13T08:46:31;2.70;;;1.40;;
8199;SDS011;4141;47.880;12.340;2022-09-13T08:49:02;3.57;;;1.40;;
8199;SDS011;4141;47.880;12.340;2022-09-13T08:51:39;2.03;;;1.10;;
8199;SDS011;4141;47.880;12.340;2022-09-13T08:54:09;2.30;;;1.10;;
8199;SDS011;4141;47.880;12.340;2022-09-13T08:56:40;8.70;;;1.30;;
8199;SDS011;4141;47.880;12.340;2022-09-13T08:59:15;2.37;;;1.30;;
8199;SDS011;4141;47.880;12.340;2022-09-13T09:02:04;2.20;;;1.13;;
8199;SDS011;4141;47.880;12.340;2022-09-13T09:04:41;3.87;;;0.97;;
8199;SDS011;4141;47.880;12.340;2022-09-13T09:07:14;4.60;;;1.73;;
8199;SDS011;4141;47.880;12.340;2022-09-13T09:09:46;3.33;;;0.80;;
8199;SDS011;4141;47.880;12.340;2022-09-13T09:12:20;5.60;;;1.30;;
8199;SDS011;4141;47.880;12.340;2022-09-13T09:14:58;2.53;;;1.37;;
8199;SDS011;4141;47.880;12.340;2022-09-13T09:17:29;4.50;;;1.13;;
8199;SDS011;4141;47.880;12.340;2022-09-13T09:20:04;5.63;;;1.00;;
8199;SDS011;4141;47.880;12.340;2022-09-13T09:22:36;1.30;;;0.77;;
8199;SDS011;4141;47.880;12.340;2022-09-13T09:25:04;1.90;;;0.80;;
8199;SDS011;4141;47.880;12.340;2022-09-13T09:27:35;1.40;;;0.80;;
8199;SDS011;4141;47.880;12.340;2022-09-13T09:30:03;2.73;;;1.20;;
8199;SDS011;4141;47.880;12.340;2022-09-13T09:33:04;1.87;;;1.30;;
8199;SDS011;4141;47.880;12.340;2022-09-13T09:35:42;1.60;;;1.00;;
8199;SDS011;4141;47.880;12.340;2022-09-13T09:38:18;1.83;;;0.80;;
8199;SDS011;4141;47.880;12.340;2022-09-13T09:40:53;1.53;;;0.80;;
8199;SDS011;4141;47.880;12.340;2022-09-13T09:43:24;3.00;;;1.00;;
8199;SDS011;4141;47.880;12.340;2022-09-13T09:45:55;2.40;;;0.80;;
8199;SDS011;4141;47.880;12.340;2022-09-13T09:48:25;2.93;;;0.70;;
8199;SDS011;4141;47.880;12.340;2022-09-13T09:50:56;3.00;;;0.70;;
8199;SDS011;4141;47.880;12.340;2022-09-13T09:53:26;3.20;;;0.90;;
8199;SDS011;4141;47.880;12.340;2022-09-13T09:56:04;1.20;;;0.70;;
8199;SDS011;4141;47.880;12.340;2022-09-13T09:58:40;1.83;;;0.70;;
8199;SDS011;4141;47.880;12.340;2022-09-13T10:01:13;6.03;;;0.83;;
8199;SDS011;4141;47.880;12.340;2022-09-13T10:03:52;2.57;;;0.80;;
8199;SDS011;4141;47.880;12.340;2022-09-13T10:06:24;1.77;;;1.00;;
8199;SDS011;4141;47.880;12.340;2022-09-13T10:08:59;1.77;;;0.80;;
8199;SDS011;4141;47.880;12.340;2022-09-13T10:11:38;1.87;;;1.00;;
8199;SDS011;4141;47.880;12.340;2022-09-13T10:17:04;1.10;;;0.73;;
8199;SDS011;4141;47.880;12.340;2022-09-13T10:19:41;2.97;;;0.90;;
8199;SDS011;4141;47.880;12.340;2022-09-13T10:22:18;1.40;;;0.87;;
8199;SDS011;4141;47.880;12.340;2022-09-13T10:24:47;2.17;;;1.00;;
8199;SDS011;4141;47.880;12.340;2022-09-13T10:27:20;1.63;;;0.87;;
8199;SDS011;4141;47.880;12.340;2022-09-13T10:29:51;1.97;;;0.87;;
8199;SDS011;4141;47.880;12.340;2022-09-13T10:32:26;3.00;;;0.77;;
8199;SDS011;4141;47.880;12.340;2022-09-13T10:34:55;1.90;;;0.80;;
8199;SDS011;4141;47.880;12.340;2022-09-13T10:37:26;1.97;;;0.90;;
8199;SDS011;4141;47.880;12.340;2022-09-13T10:39:59;1.80;;;0.80;;
8199;SDS011;4141;47.880;12.340;2022-09-13T10:42:29;2.90;;;0.70;;
8199;SDS011;4141;47.880;12.340;2022-09-13T10:44:58;1.20;;;0.73;;
8199;SDS011;4141;47.880;12.340;2022-09-13T10:47:30;2.40;;;1.20;;
8199;SDS011;4141;47.880;12.340;2022-09-13T10:50:11;1.90;;;1.10;;
8199;SDS011;4141;47.880;12.340;2022-09-13T10:52:46;2.80;;;1.03;;
8199;SDS011;4141;47.880;12.340;2022-09-13T10:55:28;2.47;;;1.10;;
8199;SDS011;4141;47.880;12.340;2022-09-13T10:58:11;2.73;;;0.93;;
8199;SDS011;4141;47.880;12.340;2022-09-13T11:00:48;1.70;;;0.80;;
8199;SDS011;4141;47.880;12.340;2022-09-13T11:03:45;7.10;;;0.80;;
8199;SDS011;4141;47.880;12.340;2022-09-13T11:06:23;2.10;;;1.07;;
8199;SDS011;4141;47.880;12.340;2022-09-13T11:08:56;2.17;;;1.00;;
8199;SDS011;4141;47.880;12.340;2022-09-13T11:11:29;3.43;;;0.90;;
8199;SDS011;4141;47.880;12.340;2022-09-13T11:14:04;4.90;;;0.80;;
8199;SDS011;4141;47.880;12.340;2022-09-13T11:16:41;2.03;;;1.00;;
8199;SDS011;4141;47.880;12.340;2022-09-13T11:19:18;2.53;;;0.80;;
8199;SDS011;4141;47.880;12.340;2022-09-13T11:21:57;2.07;;;1.07;;
8199;SDS011;4141;47.880;12.340;2022-09-13T11:24:40;1.70;;;0.80;;
8199;SDS011;4141;47.880;12.340;2022-09-13T11:27:16;1.40;;;0.90;;
8199;SDS011;4141;47.880;12.340;2022-09-13T11:30:02;1.87;;;0.83;;
8199;SDS011;4141;47.880;12.340;2022-09-13T11:32:40;1.93;;;1.00;;
8199;SDS011;4141;47.880;12.340;2022-09-13T11:35:24;1.83;;;0.80;;
8199;SDS011;4141;47.880;12.340;2022-09-13T11:37:57;3.47;;;1.40;;
8199;SDS011;4141;47.880;12.340;2022-09-13T11:40:33;2.17;;;1.30;;
8199;SDS011;4141;47.880;12.340;2022-09-13T11:43:12;1.50;;;0.90;;
8199;SDS011;4141;47.880;12.340;2022-09-13T11:45:49;1.50;;;0.90;;
8199;SDS011;4141;47.880;12.340;2022-09-13T11:48:26;1.93;;;1.00;;
8199;SDS011;4141;47.880;12.340;2022-09-13T11:51:03;1.60;;;0.90;;
8199;SDS011;4141;47.880;12.340;2022-09-13T11:53:44;3.33;;;1.17;;
8199;SDS011;4141;47.880;12.340;2022-09-13T11:56:20;1.73;;;0.87;;
8199;SDS011;4141;47.880;12.340;2022-09-13T11:58:50;2.30;;;1.00;;
8199;SDS011;4141;47.880;12.340;2022-09-13T12:01:21;7.53;;;1.10;;
8199;SDS011;4141;47.880;12.340;2022-09-13T12:03:54;2.90;;;1.07;;
8199;SDS011;4141;47.880;12.340;2022-09-13T12:06:29;1.90;;;0.73;;
8199;SDS011;4141;47.880;12.340;2022-09-13T12:09:02;2.23;;;1.00;;
8199;SDS011;4141;47.880;12.340;2022-09-13T12:11:34;1.83;;;0.80;;
8199;SDS011;4141;47.880;12.340;2022-09-13T12:14:04;2.83;;;1.17;;
8199;SDS011;4141;47.880;12.340;2022-09-13T12:16:35;5.47;;;1.20;;
8199;SDS011;4141;47.880;12.340;2022-09-13T12:19:06;1.57;;;0.80;;
8199;SDS011;4141;47.880;12.340;2022-09-13T12:21:41;1.30;;;0.80;;
8199;SDS011;4141;47.880;12.340;2022-09-13T12:24:12;1.27;;;0.70;;
8199;SDS011;4141;47.880;12.340;2022-09-13T12:26:44;8.27;;;1.20;;
8199;SDS011;4141;47.880;12.340;2022-09-13T12:29:17;1.50;;;0.90;;
8199;SDS011;4141;47.880;12.340;2022-09-13T12:31:47;1.90;;;1.00;;
8199;SDS011;4141;47.880;12.340;2022-09-13T12:34:17;1.67;;;0.90;;
8199;SDS011;4141;47.880;12.340;2022-09-13T12:36:59;1.33;;;0.70;;
8199;SDS011;4141;47.880;12.340;2022-09-13T12:42:50;4.90;;;1.10;;
8199;SDS011;4141;47.880;12.340;2022-09-13T12:45:43;3.40;;;1.07;;
8199;SDS011;4141;47.880;12.340;2022-09-13T12:55:04;4.93;;;1.33;;
8199;SDS011;4141;47.880;12.340;2022-09-13T12:58:16;2.50;;;0.83;;
8199;SDS011;4141;47.880;12.340;2022-09-13T13:01:03;2.60;;;1.10;;
8199;SDS011;4141;47.880;12.340;2022-09-13T13:03:42;2.23;;;0.90;;
8199;SDS011;4141;47.880;12.340;2022-09-13T13:06:23;1.35;;;0.70;;
8199;SDS011;4141;47.880;12.340;2022-09-13T13:09:02;1.53;;;0.87;;
8199;SDS011;4141;47.880;12.340;2022-09-13T13:11:40;3.23;;;0.90;;
8199;SDS011;4141;47.880;12.340;2022-09-13T13:23:12;6.53;;;0.87;;
8199;SDS011;4141;47.880;12.340;2022-09-13T13:25:55;1.50;;;0.87;;
8199;SDS011;4141;47.880;12.340;2022-09-13T13:31:34;2.20;;;0.87;;
8199;SDS011;4141;47.880;12.340;2022-09-13T13:36:59;3.60;;;0.97;;
8199;SDS011;4141;47.880;12.340;2022-09-13T13:39:32;1.43;;;0.93;;
8199;SDS011;4141;47.880;12.340;2022-09-13T13:42:25;1.40;;;0.80;;
8199;SDS011;4141;47.880;12.340;2022-09-13T13:45:04;8.33;;;1.30;;
8199;SDS011;4141;47.880;12.340;2022-09-13T13:53:43;2.07;;;1.30;;
8199;SDS011;4141;47.880;12.340;2022-09-13T13:56:23;1.93;;;1.10;;
8199;SDS011;4141;47.880;12.340;2022-09-13T13:58:57;2.03;;;0.90;;
8199;SDS011;4141;47.880;12.340;2022-09-13T14:01:32;3.60;;;1.10;;
8199;SDS011;4141;47.880;12.340;2022-09-13T14:07:04;3.17;;;0.90;;
8199;SDS011;4141;47.880;12.340;2022-09-13T14:09:48;1.37;;;0.77;;
8199;SDS011;4141;47.880;12.340;2022-09-13T14:12:24;3.05;;;1.15;;
8199;SDS011;4141;47.880;12.340;2022-09-13T14:15:08;1.50;;;0.90;;
8199;SDS011;4141;47.880;12.340;2022-09-13T14:18:00;2.03;;;1.20;;
8199;SDS011;4141;47.880;12.340;2022-09-13T14:23:24;1.90;;;1.10;;
8199;SDS011;4141;47.880;12.340;2022-09-13T14:25:54;2.47;;;1.07;;
8199;SDS011;4141;47.880;12.340;2022-09-13T14:28:24;1.90;;;1.30;;
8199;SDS011;4141;47.880;12.340;2022-09-13T14:30:54;3.77;;;1.20;;
8199;SDS011;4141;47.880;12.340;2022-09-13T14:33:24;3.60;;;1.03;;
8199;SDS011;4141;47.880;12.340;2022-09-13T14:35:58;2.00;;;0.80;;
8199;SDS011;4141;47.880;12.340;2022-09-13T14:38:29;2.50;;;0.70;;
8199;SDS011;4141;47.880;12.340;2022-09-13T14:41:02;3.10;;;1.00;;
8199;SDS011;4141;47.880;12.340;2022-09-13T14:43:39;2.00;;;0.80;;
8199;SDS011;4141;47.880;12.340;2022-09-13T14:46:10;2.17;;;0.80;;
8199;SDS011;4141;47.880;12.340;2022-09-13T14:48:41;1.30;;;0.80;;
8199;SDS011;4141;47.880;12.340;2022-09-13T14:51:17;6.97;;;1.10;;
8199;SDS011;4141;47.880;12.340;2022-09-13T14:53:49;5.47;;;1.00;;
8199;SDS011;4141;47.880;12.340;2022-09-13T14:56:23;4.40;;;1.20;;
8199;SDS011;4141;47.880;12.340;2022-09-13T14:58:56;2.77;;;1.00;;
8199;SDS011;4141;47.880;12.340;2022-09-13T15:01:27;8.60;;;0.93;;
8199;SDS011;4141;47.880;12.340;2022-09-13T15:03:57;5.40;;;0.87;;
8199;SDS011;4141;47.880;12.340;2022-09-13T15:06:27;5.80;;;1.17;;
8199;SDS011;4141;47.880;12.340;2022-09-13T15:08:57;6.23;;;1.20;;
8199;SDS011;4141;47.880;12.340;2022-09-13T15:11:29;4.03;;;1.17;;
8199;SDS011;4141;47.880;12.340;2022-09-13T15:14:01;3.00;;;0.97;;
8199;SDS011;4141;47.880;12.340;2022-09-13T15:16:32;5.27;;;1.33;;
8199;SDS011;4141;47.880;12.340;2022-09-13T15:22:04;1.70;;;0.80;;
8199;SDS011;4141;47.880;12.340;2022-09-13T15:24:41;1.60;;;0.83;;
8199;SDS011;4141;47.880;12.340;2022-09-13T15:27:21;5.10;;;0.83;;
8199;SDS011;4141;47.880;12.340;2022-09-13T15:29:52;2.13;;;0.73;;
8199;SDS011;4141;47.880;12.340;2022-09-13T15:32:27;1.27;;;0.83;;
8199;SDS011;4141;47.880;12.340;2022-09-13T15:34:58;3.30;;;0.90;;
8199;SDS011;4141;47.880;12.340;2022-09-13T15:37:28;8.03;;;1.40;;
8199;SDS011;4141;47.880;12.340;2022-09-13T15:40:02;7.97;;;1.53;;
8199;SDS011;4141;47.880;12.340;2022-09-13T15:42:38;5.87;;;0.93;;
8199;SDS011;4141;47.880;12.340;2022-09-13T15:45:06;10.33;;;0.90;;
8199;SDS011;4141;47.880;12.340;2022-09-13T15:47:36;3.53;;;0.90;;
8199;SDS011;4141;47.880;12.340;2022-09-13T15:50:04;1.47;;;1.00;;
8199;SDS011;4141;47.880;12.340;2022-09-13T15:52:33;2.47;;;0.80;;
8199;SDS011;4141;47.880;12.340;2022-09-13T15:55:01;1.83;;;1.03;;
8199;SDS011;4141;47.880;12.340;2022-09-13T15:57:30;1.50;;;1.10;;
8199;SDS011;4141;47.880;12.340;2022-09-13T15:59:58;2.13;;;0.60;;
8199;SDS011;4141;47.880;12.340;2022-09-13T16:02:32;4.50;;;1.10;;
8199;SDS011;4141;47.880;12.340;2022-09-13T16:05:03;2.40;;;0.80;;
8199;SDS011;4141;47.880;12.340;2022-09-13T16:07:34;11.63;;;1.00;;
8199;SDS011;4141;47.880;12.340;2022-09-13T16:10:03;2.80;;;1.27;;
8199;SDS011;4141;47.880;12.340;2022-09-13T16:12:31;2.00;;;1.07;;
8199;SDS011;4141;47.880;12.340;2022-09-13T16:14:59;3.47;;;1.10;;
8199;SDS011;4141;47.880;12.340;2022-09-13T16:17:27;3.83;;;0.93;;
8199;SDS011;4141;47.880;12.340;2022-09-13T16:19:56;2.60;;;1.23;;
8199;SDS011;4141;47.880;12.340;2022-09-13T16:22:25;5.93;;;0.87;;